Terminal Aerodrome Forecast
Issued by NWS

Home | Current Version | Previous Version | Text Only | Print | Product List | Glossary On
Versions: 1 2 3 4 5 6 7 8 9 10 11 12 13 14 15 16 17 18 19 20 21 22 23 24 25 26
000
FTUS43 KLSX 301120
TAFUIN
TAF
KUIN 301120Z 3012/3112 VRB04KT 1/4SM FG VV002
     FM301300 VRB02KT 5SM BR BKN005 BKN030
      TEMPO 3013/3014 2SM BR
     FM301400 VRB05KT P6SM SCT005 BKN030
     FM301700 06006KT P6SM SCT030
     FM310100 16006KT P6SM SCT040=

USA.gov is the U.S. government's official web portal to all federal, state and local government web resources and services.